Strona główna
METAR-TAF:

METAR-TAF

Lotnisko :

Yeovilton, Anglia

Szerokość geograficzna: 51-00N, Długość geograficzna: 002-38W, wysokość: 23 m

Aktualna obserwacja pogody

Raport powstał 1 godzina i 2 minut temu, godzina 05:50 UTC
Wiatr 5 kt od wschód
Temperatura 13°C
Wilgotność 94%
Ciśnienie 1019 hPa
Widzialność 10 km lub więcej

METAR: EGDY 210550Z AUTO 10005KT 9999 FEW050/// 13/12 Q1019

czas: 07:52 (06:52 UTC)


TAF: brakujący

Obserwacja i prognoza pogody dla ponad 4000 lotnisk (raport METAR i TAF).

Dostępne stacje oznaczono żółtymi i czerwonymi punktami na mapie.

Najedź kursorem aby zobaczyć nazwę stacji.

Kliknij aby zobaczyć obserwacje i prognozy pogody.

Aby zmienić mapę: kliknij na zielony przycisk z czarnym krzyżykiem, aby powiększyć; na zielony przycisk z myślnikiem, aby pomniejszyć; na zielone strzałki, aby przejść do map sąsiednich.


METAR-TAF: